sensor_id;sensor_type;location;lat;lon;timestamp;P1;durP1;ratioP1;P2;durP2;ratioP2
72974;SDS011;61166;54.228;37.632;2022-11-20T00:00:52;13.60;;;4.80;;
72974;SDS011;61166;54.228;37.632;2022-11-20T00:03:19;10.88;;;5.07;;
72974;SDS011;61166;54.228;37.632;2022-11-20T00:05:46;11.40;;;4.27;;
72974;SDS011;61166;54.228;37.632;2022-11-20T00:08:12;11.52;;;4.65;;
72974;SDS011;61166;54.228;37.632;2022-11-20T00:10:40;9.07;;;4.07;;
72974;SDS011;61166;54.228;37.632;2022-11-20T00:13:07;10.63;;;3.85;;
72974;SDS011;61166;54.228;37.632;2022-11-20T00:15:34;12.18;;;4.93;;
72974;SDS011;61166;54.228;37.632;2022-11-20T00:18:00;11.23;;;4.07;;
72974;SDS011;61166;54.228;37.632;2022-11-20T00:20:27;11.77;;;4.30;;
72974;SDS011;61166;54.228;37.632;2022-11-20T00:22:53;12.73;;;5.10;;
72974;SDS011;61166;54.228;37.632;2022-11-20T00:25:20;8.13;;;2.92;;
72974;SDS011;61166;54.228;37.632;2022-11-20T00:27:47;13.05;;;5.10;;
72974;SDS011;61166;54.228;37.632;2022-11-20T00:30:13;12.37;;;4.83;;
72974;SDS011;61166;54.228;37.632;2022-11-20T00:32:41;12.32;;;3.72;;
72974;SDS011;61166;54.228;37.632;2022-11-20T00:35:07;11.18;;;4.35;;
72974;SDS011;61166;54.228;37.632;2022-11-20T00:37:34;10.10;;;4.20;;
72974;SDS011;61166;54.228;37.632;2022-11-20T00:40:00;12.00;;;4.40;;
72974;SDS011;61166;54.228;37.632;2022-11-20T00:42:27;13.93;;;4.80;;
72974;SDS011;61166;54.228;37.632;2022-11-20T00:44:53;10.18;;;3.90;;
72974;SDS011;61166;54.228;37.632;2022-11-20T00:47:20;14.15;;;5.03;;
72974;SDS011;61166;54.228;37.632;2022-11-20T00:49:46;10.77;;;4.32;;
72974;SDS011;61166;54.228;37.632;2022-11-20T00:52:13;12.82;;;5.28;;
72974;SDS011;61166;54.228;37.632;2022-11-20T00:54:40;10.20;;;4.50;;
72974;SDS011;61166;54.228;37.632;2022-11-20T00:57:06;8.90;;;3.55;;
72974;SDS011;61166;54.228;37.632;2022-11-20T00:59:33;12.45;;;4.85;;
72974;SDS011;61166;54.228;37.632;2022-11-20T01:01:59;12.88;;;4.47;;
72974;SDS011;61166;54.228;37.632;2022-11-20T01:04:26;11.38;;;4.90;;
72974;SDS011;61166;54.228;37.632;2022-11-20T01:06:52;10.97;;;4.63;;
72974;SDS011;61166;54.228;37.632;2022-11-20T01:09:19;12.50;;;5.32;;
72974;SDS011;61166;54.228;37.632;2022-11-20T01:11:47;11.10;;;5.13;;
72974;SDS011;61166;54.228;37.632;2022-11-20T01:14:14;10.45;;;4.30;;
72974;SDS011;61166;54.228;37.632;2022-11-20T01:16:44;13.85;;;5.22;;
72974;SDS011;61166;54.228;37.632;2022-11-20T01:19:15;15.20;;;5.13;;
72974;SDS011;61166;54.228;37.632;2022-11-20T01:21:44;10.98;;;3.85;;
72974;SDS011;61166;54.228;37.632;2022-11-20T01:24:13;12.68;;;4.93;;
72974;SDS011;61166;54.228;37.632;2022-11-20T01:26:41;12.85;;;6.00;;
72974;SDS011;61166;54.228;37.632;2022-11-20T01:29:22;13.68;;;5.47;;
72974;SDS011;61166;54.228;37.632;2022-11-20T01:31:50;13.43;;;5.50;;
72974;SDS011;61166;54.228;37.632;2022-11-20T01:34:18;10.93;;;4.57;;
72974;SDS011;61166;54.228;37.632;2022-11-20T01:36:45;12.20;;;5.15;;
72974;SDS011;61166;54.228;37.632;2022-11-20T01:39:14;11.23;;;4.90;;
72974;SDS011;61166;54.228;37.632;2022-11-20T01:41:44;9.80;;;3.90;;
72974;SDS011;61166;54.228;37.632;2022-11-20T01:44:12;16.63;;;5.20;;
72974;SDS011;61166;54.228;37.632;2022-11-20T01:46:52;10.88;;;4.50;;
72974;SDS011;61166;54.228;37.632;2022-11-20T01:49:31;10.30;;;5.05;;
72974;SDS011;61166;54.228;37.632;2022-11-20T01:52:24;14.50;;;4.85;;
72974;SDS011;61166;54.228;37.632;2022-11-20T01:57:39;19.00;;;6.53;;
72974;SDS011;61166;54.228;37.632;2022-11-20T02:00:07;15.10;;;6.20;;
72974;SDS011;61166;54.228;37.632;2022-11-20T02:02:36;18.13;;;6.25;;
72974;SDS011;61166;54.228;37.632;2022-11-20T02:08:03;16.17;;;6.18;;
72974;SDS011;61166;54.228;37.632;2022-11-20T02:10:32;15.77;;;6.47;;
72974;SDS011;61166;54.228;37.632;2022-11-20T02:12:59;14.32;;;5.25;;
72974;SDS011;61166;54.228;37.632;2022-11-20T02:15:26;13.18;;;5.97;;
72974;SDS011;61166;54.228;37.632;2022-11-20T02:17:55;11.65;;;5.57;;
72974;SDS011;61166;54.228;37.632;2022-11-20T02:20:22;11.95;;;5.03;;
72974;SDS011;61166;54.228;37.632;2022-11-20T02:25:46;10.65;;;4.10;;
72974;SDS011;61166;54.228;37.632;2022-11-20T02:28:13;11.60;;;5.45;;
72974;SDS011;61166;54.228;37.632;2022-11-20T02:30:41;11.57;;;5.72;;
72974;SDS011;61166;54.228;37.632;2022-11-20T02:33:07;12.98;;;6.10;;
72974;SDS011;61166;54.228;37.632;2022-11-20T02:38:01;12.40;;;5.45;;
72974;SDS011;61166;54.228;37.632;2022-11-20T02:40:29;12.48;;;5.43;;
72974;SDS011;61166;54.228;37.632;2022-11-20T02:42:55;12.18;;;5.90;;
72974;SDS011;61166;54.228;37.632;2022-11-20T02:45:23;14.55;;;6.53;;
72974;SDS011;61166;54.228;37.632;2022-11-20T02:47:50;13.77;;;5.87;;
72974;SDS011;61166;54.228;37.632;2022-11-20T02:50:18;11.30;;;4.68;;
72974;SDS011;61166;54.228;37.632;2022-11-20T02:52:44;13.68;;;6.75;;
72974;SDS011;61166;54.228;37.632;2022-11-20T02:55:11;13.73;;;5.78;;
72974;SDS011;61166;54.228;37.632;2022-11-20T02:57:38;12.27;;;5.30;;
72974;SDS011;61166;54.228;37.632;2022-11-20T03:00:04;12.20;;;5.10;;
72974;SDS011;61166;54.228;37.632;2022-11-20T03:02:32;16.70;;;6.25;;
72974;SDS011;61166;54.228;37.632;2022-11-20T03:04:59;13.93;;;5.93;;
72974;SDS011;61166;54.228;37.632;2022-11-20T03:07:25;14.23;;;5.95;;
72974;SDS011;61166;54.228;37.632;2022-11-20T03:09:52;14.82;;;5.93;;
72974;SDS011;61166;54.228;37.632;2022-11-20T03:12:19;13.10;;;5.77;;
72974;SDS011;61166;54.228;37.632;2022-11-20T03:14:45;16.52;;;6.88;;
72974;SDS011;61166;54.228;37.632;2022-11-20T03:17:18;17.25;;;7.22;;
72974;SDS011;61166;54.228;37.632;2022-11-20T03:19:45;22.52;;;7.18;;
72974;SDS011;61166;54.228;37.632;2022-11-20T03:22:11;21.98;;;7.05;;
72974;SDS011;61166;54.228;37.632;2022-11-20T03:24:37;16.77;;;6.27;;
72974;SDS011;61166;54.228;37.632;2022-11-20T03:27:04;13.60;;;6.32;;
72974;SDS011;61166;54.228;37.632;2022-11-20T03:29:30;15.32;;;6.45;;
72974;SDS011;61166;54.228;37.632;2022-11-20T03:31:57;12.77;;;5.68;;
72974;SDS011;61166;54.228;37.632;2022-11-20T03:34:24;13.18;;;5.60;;
72974;SDS011;61166;54.228;37.632;2022-11-20T03:36:50;13.33;;;6.63;;
72974;SDS011;61166;54.228;37.632;2022-11-20T03:39:17;16.10;;;6.05;;
72974;SDS011;61166;54.228;37.632;2022-11-20T03:41:44;14.93;;;6.63;;
72974;SDS011;61166;54.228;37.632;2022-11-20T03:44:10;15.68;;;6.68;;
72974;SDS011;61166;54.228;37.632;2022-11-20T03:46:37;19.33;;;7.90;;
72974;SDS011;61166;54.228;37.632;2022-11-20T03:49:04;15.23;;;6.53;;
72974;SDS011;61166;54.228;37.632;2022-11-20T03:51:32;16.10;;;6.28;;
72974;SDS011;61166;54.228;37.632;2022-11-20T03:54:01;22.23;;;7.30;;
72974;SDS011;61166;54.228;37.632;2022-11-20T03:56:31;11.10;;;4.00;;
72974;SDS011;61166;54.228;37.632;2022-11-20T03:58:59;20.23;;;7.85;;
72974;SDS011;61166;54.228;37.632;2022-11-20T04:01:36;20.17;;;8.10;;
72974;SDS011;61166;54.228;37.632;2022-11-20T04:04:03;21.17;;;8.05;;
72974;SDS011;61166;54.228;37.632;2022-11-20T04:06:32;16.05;;;7.47;;
72974;SDS011;61166;54.228;37.632;2022-11-20T04:09:01;17.65;;;7.30;;
72974;SDS011;61166;54.228;37.632;2022-11-20T04:11:29;22.58;;;6.82;;
72974;SDS011;61166;54.228;37.632;2022-11-20T04:13:58;19.33;;;8.13;;
72974;SDS011;61166;54.228;37.632;2022-11-20T04:16:29;17.63;;;6.78;;
72974;SDS011;61166;54.228;37.632;2022-11-20T04:18:58;15.07;;;6.10;;
72974;SDS011;61166;54.228;37.632;2022-11-20T04:21:26;14.75;;;5.20;;
72974;SDS011;61166;54.228;37.632;2022-11-20T04:23:53;19.73;;;7.70;;
72974;SDS011;61166;54.228;37.632;2022-11-20T04:26:21;19.60;;;6.57;;
72974;SDS011;61166;54.228;37.632;2022-11-20T04:28:49;15.68;;;7.20;;
72974;SDS011;61166;54.228;37.632;2022-11-20T04:31:17;20.15;;;7.97;;
72974;SDS011;61166;54.228;37.632;2022-11-20T04:33:45;20.15;;;7.07;;
72974;SDS011;61166;54.228;37.632;2022-11-20T04:36:13;21.33;;;9.10;;
72974;SDS011;61166;54.228;37.632;2022-11-20T04:38:45;26.10;;;9.53;;
72974;SDS011;61166;54.228;37.632;2022-11-20T04:41:15;13.18;;;5.97;;
72974;SDS011;61166;54.228;37.632;2022-11-20T04:43:47;18.70;;;8.10;;
72974;SDS011;61166;54.228;37.632;2022-11-20T04:46:16;23.80;;;8.60;;
72974;SDS011;61166;54.228;37.632;2022-11-20T04:48:43;22.65;;;8.40;;
72974;SDS011;61166;54.228;37.632;2022-11-20T04:51:09;19.03;;;7.90;;
72974;SDS011;61166;54.228;37.632;2022-11-20T04:53:36;19.92;;;7.28;;
72974;SDS011;61166;54.228;37.632;2022-11-20T04:56:04;14.07;;;5.32;;
72974;SDS011;61166;54.228;37.632;2022-11-20T04:58:32;20.80;;;7.47;;
72974;SDS011;61166;54.228;37.632;2022-11-20T05:01:03;19.60;;;8.65;;
72974;SDS011;61166;54.228;37.632;2022-11-20T05:03:36;21.90;;;7.90;;
72974;SDS011;61166;54.228;37.632;2022-11-20T05:06:08;20.38;;;8.68;;
72974;SDS011;61166;54.228;37.632;2022-11-20T05:08:36;17.02;;;7.03;;
72974;SDS011;61166;54.228;37.632;2022-11-20T05:11:03;20.20;;;8.55;;
72974;SDS011;61166;54.228;37.632;2022-11-20T05:13:31;17.83;;;6.22;;
72974;SDS011;61166;54.228;37.632;2022-11-20T05:16:05;19.17;;;8.13;;
72974;SDS011;61166;54.228;37.632;2022-11-20T05:18:42;18.70;;;8.10;;
72974;SDS011;61166;54.228;37.632;2022-11-20T05:21:09;19.42;;;7.75;;
72974;SDS011;61166;54.228;37.632;2022-11-20T05:23:36;20.95;;;7.32;;
72974;SDS011;61166;54.228;37.632;2022-11-20T05:26:03;17.33;;;6.85;;
72974;SDS011;61166;54.228;37.632;2022-11-20T05:28:31;17.83;;;7.03;;
72974;SDS011;61166;54.228;37.632;2022-11-20T05:31:05;21.88;;;8.07;;
72974;SDS011;61166;54.228;37.632;2022-11-20T05:33:32;20.55;;;7.82;;
72974;SDS011;61166;54.228;37.632;2022-11-20T05:36:00;22.23;;;8.38;;
72974;SDS011;61166;54.228;37.632;2022-11-20T05:38:28;21.20;;;8.35;;
72974;SDS011;61166;54.228;37.632;2022-11-20T05:40:55;14.80;;;6.23;;
72974;SDS011;61166;54.228;37.632;2022-11-20T05:43:28;22.52;;;9.80;;
72974;SDS011;61166;54.228;37.632;2022-11-20T05:45:58;19.90;;;8.50;;
72974;SDS011;61166;54.228;37.632;2022-11-20T05:48:24;24.02;;;10.32;;
72974;SDS011;61166;54.228;37.632;2022-11-20T05:50:51;22.25;;;8.73;;
72974;SDS011;61166;54.228;37.632;2022-11-20T05:53:18;22.43;;;9.47;;
72974;SDS011;61166;54.228;37.632;2022-11-20T05:55:44;16.95;;;6.55;;
72974;SDS011;61166;54.228;37.632;2022-11-20T05:58:11;13.55;;;6.60;;
72974;SDS011;61166;54.228;37.632;2022-11-20T06:00:37;16.50;;;7.68;;
72974;SDS011;61166;54.228;37.632;2022-11-20T06:03:04;20.77;;;8.00;;
72974;SDS011;61166;54.228;37.632;2022-11-20T06:05:31;18.37;;;7.53;;
72974;SDS011;61166;54.228;37.632;2022-11-20T06:08:00;17.65;;;7.75;;
72974;SDS011;61166;54.228;37.632;2022-11-20T06:10:27;17.27;;;6.70;;
72974;SDS011;61166;54.228;37.632;2022-11-20T06:12:56;17.77;;;7.65;;
72974;SDS011;61166;54.228;37.632;2022-11-20T06:15:23;17.73;;;7.35;;
72974;SDS011;61166;54.228;37.632;2022-11-20T06:17:53;17.17;;;7.00;;
72974;SDS011;61166;54.228;37.632;2022-11-20T06:20:24;15.85;;;6.45;;
72974;SDS011;61166;54.228;37.632;2022-11-20T06:22:50;20.75;;;8.15;;
72974;SDS011;61166;54.228;37.632;2022-11-20T06:25:17;17.30;;;6.75;;
72974;SDS011;61166;54.228;37.632;2022-11-20T06:27:44;17.23;;;7.55;;
72974;SDS011;61166;54.228;37.632;2022-11-20T06:30:10;14.13;;;6.00;;
72974;SDS011;61166;54.228;37.632;2022-11-20T06:32:38;8.07;;;3.72;;
72974;SDS011;61166;54.228;37.632;2022-11-20T06:35:04;19.60;;;7.63;;
72974;SDS011;61166;54.228;37.632;2022-11-20T06:37:31;12.80;;;6.57;;
72974;SDS011;61166;54.228;37.632;2022-11-20T06:39:58;20.08;;;8.13;;
72974;SDS011;61166;54.228;37.632;2022-11-20T06:42:24;21.13;;;9.30;;
72974;SDS011;61166;54.228;37.632;2022-11-20T06:44:51;18.17;;;8.05;;
72974;SDS011;61166;54.228;37.632;2022-11-20T06:47:17;14.75;;;6.15;;
72974;SDS011;61166;54.228;37.632;2022-11-20T06:49:44;15.35;;;6.32;;
72974;SDS011;61166;54.228;37.632;2022-11-20T06:52:10;22.13;;;8.85;;
72974;SDS011;61166;54.228;37.632;2022-11-20T06:54:37;16.10;;;7.77;;
72974;SDS011;61166;54.228;37.632;2022-11-20T06:57:04;18.23;;;8.60;;
72974;SDS011;61166;54.228;37.632;2022-11-20T06:59:30;21.25;;;8.90;;
72974;SDS011;61166;54.228;37.632;2022-11-20T07:01:57;8.38;;;3.58;;
72974;SDS011;61166;54.228;37.632;2022-11-20T07:04:23;19.02;;;7.25;;
72974;SDS011;61166;54.228;37.632;2022-11-20T07:06:50;16.00;;;7.70;;
72974;SDS011;61166;54.228;37.632;2022-11-20T07:09:17;17.77;;;7.30;;
72974;SDS011;61166;54.228;37.632;2022-11-20T07:11:44;18.27;;;8.55;;
72974;SDS011;61166;54.228;37.632;2022-11-20T07:14:11;17.23;;;7.65;;
72974;SDS011;61166;54.228;37.632;2022-11-20T07:16:37;19.02;;;8.43;;
72974;SDS011;61166;54.228;37.632;2022-11-20T07:19:04;20.97;;;8.93;;
72974;SDS011;61166;54.228;37.632;2022-11-20T07:21:30;20.02;;;8.25;;
72974;SDS011;61166;54.228;37.632;2022-11-20T07:23:57;14.65;;;6.50;;
72974;SDS011;61166;54.228;37.632;2022-11-20T07:26:23;20.65;;;9.07;;
72974;SDS011;61166;54.228;37.632;2022-11-20T07:28:50;18.30;;;8.02;;
72974;SDS011;61166;54.228;37.632;2022-11-20T07:31:17;18.10;;;7.77;;
72974;SDS011;61166;54.228;37.632;2022-11-20T07:33:45;15.88;;;6.43;;
72974;SDS011;61166;54.228;37.632;2022-11-20T07:36:11;17.27;;;6.93;;
72974;SDS011;61166;54.228;37.632;2022-11-20T07:38:38;20.33;;;7.68;;
72974;SDS011;61166;54.228;37.632;2022-11-20T07:41:05;21.60;;;8.95;;
72974;SDS011;61166;54.228;37.632;2022-11-20T07:43:31;18.67;;;8.10;;
72974;SDS011;61166;54.228;37.632;2022-11-20T07:46:05;21.95;;;7.95;;
72974;SDS011;61166;54.228;37.632;2022-11-20T07:48:31;20.08;;;7.28;;
72974;SDS011;61166;54.228;37.632;2022-11-20T07:50:58;22.42;;;7.25;;
72974;SDS011;61166;54.228;37.632;2022-11-20T07:53:24;22.55;;;9.18;;
72974;SDS011;61166;54.228;37.632;2022-11-20T07:55:51;16.80;;;7.03;;
72974;SDS011;61166;54.228;37.632;2022-11-20T07:58:18;23.98;;;8.60;;
72974;SDS011;61166;54.228;37.632;2022-11-20T08:00:45;18.83;;;8.13;;
72974;SDS011;61166;54.228;37.632;2022-11-20T08:03:12;17.98;;;6.82;;
72974;SDS011;61166;54.228;37.632;2022-11-20T08:05:39;18.52;;;7.35;;
72974;SDS011;61166;54.228;37.632;2022-11-20T08:08:05;20.33;;;7.80;;
72974;SDS011;61166;54.228;37.632;2022-11-20T08:10:34;18.48;;;7.30;;
72974;SDS011;61166;54.228;37.632;2022-11-20T08:13:01;18.15;;;7.00;;
72974;SDS011;61166;54.228;37.632;2022-11-20T08:15:27;23.67;;;9.40;;
72974;SDS011;61166;54.228;37.632;2022-11-20T08:17:59;20.80;;;9.32;;
72974;SDS011;61166;54.228;37.632;2022-11-20T08:20:50;21.43;;;7.87;;
72974;SDS011;61166;54.228;37.632;2022-11-20T08:23:16;17.30;;;7.78;;
72974;SDS011;61166;54.228;37.632;2022-11-20T08:25:43;14.90;;;6.22;;
72974;SDS011;61166;54.228;37.632;2022-11-20T08:28:09;20.95;;;8.75;;
72974;SDS011;61166;54.228;37.632;2022-11-20T08:30:46;22.50;;;8.75;;
72974;SDS011;61166;54.228;37.632;2022-11-20T08:33:13;16.20;;;7.63;;
72974;SDS011;61166;54.228;37.632;2022-11-20T08:35:40;18.33;;;7.18;;
72974;SDS011;61166;54.228;37.632;2022-11-20T08:38:06;20.17;;;6.78;;
72974;SDS011;61166;54.228;37.632;2022-11-20T08:40:33;19.17;;;7.60;;
72974;SDS011;61166;54.228;37.632;2022-11-20T08:43:00;20.70;;;7.40;;
72974;SDS011;61166;54.228;37.632;2022-11-20T08:45:27;12.23;;;5.93;;
72974;SDS011;61166;54.228;37.632;2022-11-20T08:48:00;17.15;;;6.85;;
72974;SDS011;61166;54.228;37.632;2022-11-20T08:50:27;19.30;;;7.88;;
72974;SDS011;61166;54.228;37.632;2022-11-20T08:52:54;17.83;;;7.43;;
72974;SDS011;61166;54.228;37.632;2022-11-20T08:55:21;21.70;;;7.80;;
72974;SDS011;61166;54.228;37.632;2022-11-20T08:57:47;18.83;;;8.93;;
72974;SDS011;61166;54.228;37.632;2022-11-20T09:00:16;24.10;;;9.98;;
72974;SDS011;61166;54.228;37.632;2022-11-20T09:02:43;19.30;;;7.78;;
72974;SDS011;61166;54.228;37.632;2022-11-20T09:05:09;20.88;;;7.80;;
72974;SDS011;61166;54.228;37.632;2022-11-20T09:07:36;23.48;;;9.30;;
72974;SDS011;61166;54.228;37.632;2022-11-20T09:10:03;19.23;;;8.37;;
72974;SDS011;61166;54.228;37.632;2022-11-20T09:12:49;22.10;;;9.57;;
72974;SDS011;61166;54.228;37.632;2022-11-20T09:15:16;18.70;;;7.20;;
72974;SDS011;61166;54.228;37.632;2022-11-20T09:17:50;16.90;;;7.15;;
72974;SDS011;61166;54.228;37.632;2022-11-20T09:20:20;18.52;;;7.32;;
72974;SDS011;61166;54.228;37.632;2022-11-20T09:22:47;13.37;;;4.40;;
72974;SDS011;61166;54.228;37.632;2022-11-20T09:25:14;11.48;;;5.78;;
72974;SDS011;61166;54.228;37.632;2022-11-20T09:27:40;6.20;;;2.25;;
72974;SDS011;61166;54.228;37.632;2022-11-20T09:30:07;16.33;;;6.68;;
72974;SDS011;61166;54.228;37.632;2022-11-20T09:32:38;19.20;;;7.60;;
72974;SDS011;61166;54.228;37.632;2022-11-20T09:35:05;19.70;;;7.17;;
72974;SDS011;61166;54.228;37.632;2022-11-20T09:37:32;19.33;;;7.47;;
72974;SDS011;61166;54.228;37.632;2022-11-20T09:39:58;20.05;;;8.02;;
72974;SDS011;61166;54.228;37.632;2022-11-20T09:47:47;17.10;;;7.73;;
72974;SDS011;61166;54.228;37.632;2022-11-20T09:50:25;16.65;;;6.75;;
72974;SDS011;61166;54.228;37.632;2022-11-20T09:53:07;14.82;;;6.00;;
72974;SDS011;61166;54.228;37.632;2022-11-20T09:55:39;15.45;;;6.40;;
72974;SDS011;61166;54.228;37.632;2022-11-20T09:58:06;15.07;;;6.55;;
72974;SDS011;61166;54.228;37.632;2022-11-20T10:00:40;16.67;;;7.53;;
72974;SDS011;61166;54.228;37.632;2022-11-20T10:03:33;14.88;;;5.68;;
72974;SDS011;61166;54.228;37.632;2022-11-20T10:06:05;17.45;;;7.25;;
72974;SDS011;61166;54.228;37.632;2022-11-20T10:08:41;18.42;;;8.20;;
72974;SDS011;61166;54.228;37.632;2022-11-20T10:11:20;15.32;;;5.90;;
72974;SDS011;61166;54.228;37.632;2022-11-20T10:17:21;13.50;;;5.40;;
72974;SDS011;61166;54.228;37.632;2022-11-20T10:26:14;20.25;;;8.07;;
72974;SDS011;61166;54.228;37.632;2022-11-20T10:28:45;20.77;;;8.43;;
72974;SDS011;61166;54.228;37.632;2022-11-20T10:37:44;19.88;;;8.43;;
72974;SDS011;61166;54.228;37.632;2022-11-20T10:42:43;19.87;;;7.77;;
72974;SDS011;61166;54.228;37.632;2022-11-20T10:47:58;18.50;;;7.05;;
72974;SDS011;61166;54.228;37.632;2022-11-20T10:50:36;24.58;;;9.10;;
72974;SDS011;61166;54.228;37.632;2022-11-20T10:55:55;14.17;;;5.97;;
72974;SDS011;61166;54.228;37.632;2022-11-20T11:01:20;19.10;;;7.30;;
72974;SDS011;61166;54.228;37.632;2022-11-20T11:03:48;22.15;;;8.65;;
72974;SDS011;61166;54.228;37.632;2022-11-20T11:09:24;21.30;;;8.37;;
72974;SDS011;61166;54.228;37.632;2022-11-20T11:12:08;19.05;;;7.55;;
72974;SDS011;61166;54.228;37.632;2022-11-20T11:14:46;17.30;;;7.65;;
72974;SDS011;61166;54.228;37.632;2022-11-20T11:17:21;18.17;;;8.20;;
72974;SDS011;61166;54.228;37.632;2022-11-20T11:22:52;20.10;;;7.40;;
72974;SDS011;61166;54.228;37.632;2022-11-20T11:25:25;15.65;;;6.07;;
72974;SDS011;61166;54.228;37.632;2022-11-20T11:27:57;18.60;;;6.47;;
72974;SDS011;61166;54.228;37.632;2022-11-20T11:30:26;17.83;;;7.50;;
72974;SDS011;61166;54.228;37.632;2022-11-20T11:33:04;21.52;;;8.43;;
72974;SDS011;61166;54.228;37.632;2022-11-20T11:35:32;16.93;;;7.03;;
72974;SDS011;61166;54.228;37.632;2022-11-20T11:38:06;26.25;;;8.07;;
72974;SDS011;61166;54.228;37.632;2022-11-20T11:40:39;19.23;;;7.63;;
72974;SDS011;61166;54.228;37.632;2022-11-20T11:43:15;11.30;;;4.88;;
72974;SDS011;61166;54.228;37.632;2022-11-20T11:45:51;21.48;;;8.40;;
72974;SDS011;61166;54.228;37.632;2022-11-20T11:48:19;23.63;;;8.87;;
72974;SDS011;61166;54.228;37.632;2022-11-20T11:50:50;22.13;;;9.88;;
72974;SDS011;61166;54.228;37.632;2022-11-20T11:53:21;22.33;;;8.85;;
72974;SDS011;61166;54.228;37.632;2022-11-20T11:55:53;19.15;;;8.93;;
72974;SDS011;61166;54.228;37.632;2022-11-20T11:58:31;24.27;;;11.00;;
72974;SDS011;61166;54.228;37.632;2022-11-20T12:06:52;22.65;;;8.63;;
72974;SDS011;61166;54.228;37.632;2022-11-20T12:09:57;24.75;;;8.75;;
72974;SDS011;61166;54.228;37.632;2022-11-20T12:12:26;22.33;;;8.35;;
72974;SDS011;61166;54.228;37.632;2022-11-20T12:14:56;21.60;;;9.00;;
72974;SDS011;61166;54.228;37.632;2022-11-20T12:17:24;23.02;;;8.30;;
72974;SDS011;61166;54.228;37.632;2022-11-20T12:19:51;22.63;;;8.98;;
72974;SDS011;61166;54.228;37.632;2022-11-20T12:22:31;20.00;;;8.25;;
72974;SDS011;61166;54.228;37.632;2022-11-20T12:25:09;26.30;;;9.27;;
72974;SDS011;61166;54.228;37.632;2022-11-20T12:33:51;20.88;;;10.30;;
72974;SDS011;61166;54.228;37.632;2022-11-20T12:52:38;27.08;;;9.48;;
72974;SDS011;61166;54.228;37.632;2022-11-20T13:01:03;26.65;;;9.35;;
72974;SDS011;61166;54.228;37.632;2022-11-20T13:03:51;26.65;;;10.07;;
72974;SDS011;61166;54.228;37.632;2022-11-20T13:06:23;20.92;;;8.15;;
72974;SDS011;61166;54.228;37.632;2022-11-20T13:08:53;26.10;;;9.43;;
72974;SDS011;61166;54.228;37.632;2022-11-20T13:20:12;19.83;;;7.95;;
72974;SDS011;61166;54.228;37.632;2022-11-20T13:22:48;29.60;;;12.03;;
72974;SDS011;61166;54.228;37.632;2022-11-20T13:25:22;7.32;;;2.88;;
72974;SDS011;61166;54.228;37.632;2022-11-20T13:28:00;24.10;;;9.85;;
72974;SDS011;61166;54.228;37.632;2022-11-20T13:30:31;23.85;;;10.27;;
72974;SDS011;61166;54.228;37.632;2022-11-20T13:35:37;21.20;;;8.93;;
72974;SDS011;61166;54.228;37.632;2022-11-20T13:38:11;18.65;;;7.45;;
72974;SDS011;61166;54.228;37.632;2022-11-20T13:41:00;14.57;;;6.20;;
72974;SDS011;61166;54.228;37.632;2022-11-20T13:43:42;22.90;;;9.50;;
72974;SDS011;61166;54.228;37.632;2022-11-20T13:46:11;25.67;;;10.35;;
72974;SDS011;61166;54.228;37.632;2022-11-20T13:48:43;29.13;;;10.47;;
72974;SDS011;61166;54.228;37.632;2022-11-20T13:57:07;16.77;;;6.65;;
72974;SDS011;61166;54.228;37.632;2022-11-20T14:02:17;26.27;;;9.70;;
72974;SDS011;61166;54.228;37.632;2022-11-20T14:04:46;18.55;;;8.55;;
72974;SDS011;61166;54.228;37.632;2022-11-20T14:07:16;25.85;;;11.18;;
72974;SDS011;61166;54.228;37.632;2022-11-20T14:09:55;25.45;;;10.43;;
72974;SDS011;61166;54.228;37.632;2022-11-20T14:12:27;22.45;;;10.20;;
72974;SDS011;61166;54.228;37.632;2022-11-20T14:14:56;19.20;;;8.80;;
72974;SDS011;61166;54.228;37.632;2022-11-20T14:17:31;28.50;;;10.60;;
72974;SDS011;61166;54.228;37.632;2022-11-20T14:20:00;8.82;;;3.97;;
72974;SDS011;61166;54.228;37.632;2022-11-20T14:22:30;15.55;;;6.60;;
72974;SDS011;61166;54.228;37.632;2022-11-20T14:27:45;25.17;;;10.07;;
72974;SDS011;61166;54.228;37.632;2022-11-20T14:30:18;22.88;;;10.27;;
72974;SDS011;61166;54.228;37.632;2022-11-20T14:32:47;19.85;;;7.97;;
72974;SDS011;61166;54.228;37.632;2022-11-20T14:35:58;23.80;;;9.75;;
72974;SDS011;61166;54.228;37.632;2022-11-20T14:38:13;24.00;;;9.43;;
72974;SDS011;61166;54.228;37.632;2022-11-20T14:40:43;19.67;;;7.63;;
72974;SDS011;61166;54.228;37.632;2022-11-20T14:43:21;23.83;;;10.07;;
72974;SDS011;61166;54.228;37.632;2022-11-20T14:46:05;24.75;;;10.30;;
72974;SDS011;61166;54.228;37.632;2022-11-20T14:48:42;26.58;;;11.63;;
72974;SDS011;61166;54.228;37.632;2022-11-20T14:51:29;26.58;;;11.43;;
72974;SDS011;61166;54.228;37.632;2022-11-20T14:54:08;29.47;;;11.63;;
72974;SDS011;61166;54.228;37.632;2022-11-20T14:56:38;26.52;;;10.93;;
72974;SDS011;61166;54.228;37.632;2022-11-20T14:59:05;20.58;;;10.05;;
72974;SDS011;61166;54.228;37.632;2022-11-20T15:01:33;19.75;;;7.30;;
72974;SDS011;61166;54.228;37.632;2022-11-20T15:06:36;23.20;;;10.17;;
72974;SDS011;61166;54.228;37.632;2022-11-20T15:09:04;27.33;;;10.10;;
72974;SDS011;61166;54.228;37.632;2022-11-20T15:11:38;22.83;;;10.18;;
72974;SDS011;61166;54.228;37.632;2022-11-20T15:14:09;24.90;;;10.52;;
72974;SDS011;61166;54.228;37.632;2022-11-20T15:16:35;24.40;;;8.88;;
72974;SDS011;61166;54.228;37.632;2022-11-20T15:19:02;21.50;;;9.27;;
72974;SDS011;61166;54.228;37.632;2022-11-20T15:21:42;25.35;;;11.45;;
72974;SDS011;61166;54.228;37.632;2022-11-20T15:24:09;23.13;;;10.23;;
72974;SDS011;61166;54.228;37.632;2022-11-20T15:26:36;24.15;;;9.70;;
72974;SDS011;61166;54.228;37.632;2022-11-20T15:29:08;17.20;;;6.78;;
72974;SDS011;61166;54.228;37.632;2022-11-20T15:31:36;21.20;;;8.23;;
72974;SDS011;61166;54.228;37.632;2022-11-20T15:34:04;25.38;;;9.65;;
72974;SDS011;61166;54.228;37.632;2022-11-20T15:36:32;26.65;;;9.07;;
72974;SDS011;61166;54.228;37.632;2022-11-20T15:38:59;29.23;;;10.88;;
72974;SDS011;61166;54.228;37.632;2022-11-20T15:41:25;24.65;;;11.38;;
72974;SDS011;61166;54.228;37.632;2022-11-20T15:43:52;26.20;;;12.00;;
72974;SDS011;61166;54.228;37.632;2022-11-20T15:46:21;31.27;;;13.15;;
72974;SDS011;61166;54.228;37.632;2022-11-20T15:48:56;27.38;;;12.23;;
72974;SDS011;61166;54.228;37.632;2022-11-20T15:51:27;28.20;;;12.63;;
72974;SDS011;61166;54.228;37.632;2022-11-20T15:53:57;27.75;;;11.07;;
72974;SDS011;61166;54.228;37.632;2022-11-20T15:56:29;23.13;;;10.07;;
72974;SDS011;61166;54.228;37.632;2022-11-20T15:58:56;26.50;;;11.98;;
72974;SDS011;61166;54.228;37.632;2022-11-20T16:01:23;25.92;;;12.02;;
72974;SDS011;61166;54.228;37.632;2022-11-20T16:03:49;31.45;;;11.68;;
72974;SDS011;61166;54.228;37.632;2022-11-20T16:06:16;21.77;;;10.15;;
72974;SDS011;61166;54.228;37.632;2022-11-20T16:08:43;24.57;;;10.40;;
72974;SDS011;61166;54.228;37.632;2022-11-20T16:11:13;29.92;;;11.88;;
72974;SDS011;61166;54.228;37.632;2022-11-20T16:13:42;32.70;;;13.48;;
72974;SDS011;61166;54.228;37.632;2022-11-20T16:16:28;26.75;;;10.88;;
72974;SDS011;61166;54.228;37.632;2022-11-20T16:18:58;27.92;;;11.70;;
72974;SDS011;61166;54.228;37.632;2022-11-20T16:21:25;30.60;;;12.40;;
72974;SDS011;61166;54.228;37.632;2022-11-20T16:23:52;25.02;;;9.70;;